createdAt,value
2023-04-16T00:01:37.117Z,10.05
2023-04-16T00:04:04.516Z,10.80
2023-04-16T00:08:58.697Z,11.10
2023-04-16T00:11:25.349Z,11.30
2023-04-16T00:13:51.965Z,11.57
2023-04-16T00:16:18.645Z,10.07
2023-04-16T00:18:45.449Z,11.90
2023-04-16T00:21:12.364Z,11.95
2023-04-16T00:23:39.051Z,11.95
2023-04-16T00:26:06.417Z,11.30
2023-04-16T00:28:33.165Z,10.75
2023-04-16T00:33:27.737Z,12.38
2023-04-16T00:35:54.339Z,12.60
2023-04-16T00:40:47.780Z,11.52
2023-04-16T00:43:22.140Z,12.25
2023-04-16T00:45:48.954Z,13.95
2023-04-16T00:48:16.054Z,14.43
2023-04-16T00:50:42.697Z,14.52
2023-04-16T00:53:10.802Z,13.48
2023-04-16T00:55:39.749Z,13.73
2023-04-16T00:58:06.807Z,13.18
2023-04-16T01:00:33.718Z,12.52
2023-04-16T01:05:27.469Z,11.85
2023-04-16T01:07:59.593Z,11.38
2023-04-16T01:10:27.423Z,10.05
2023-04-16T01:12:54.183Z,11.25
2023-04-16T01:15:20.856Z,10.43
2023-04-16T01:17:48.214Z,10.50
2023-04-16T01:20:14.842Z,9.95
2023-04-16T01:22:42.620Z,8.60
2023-04-16T01:25:14.061Z,9.45
2023-04-16T01:27:40.628Z,9.73
2023-04-16T01:30:07.928Z,11.10
2023-04-16T01:32:35.416Z,11.48
2023-04-16T01:35:03.779Z,10.45
2023-04-16T01:37:30.893Z,9.93
2023-04-16T01:39:57.418Z,11.02
2023-04-16T01:42:24.310Z,10.82
2023-04-16T01:47:18.210Z,10.52
2023-04-16T01:49:45.560Z,10.10
2023-04-16T01:52:12.854Z,10.90
2023-04-16T01:54:39.425Z,11.77
2023-04-16T01:57:05.993Z,11.55
2023-04-16T01:59:33.056Z,10.73
2023-04-16T02:02:12.978Z,11.55
2023-04-16T02:04:41.235Z,11.77
2023-04-16T02:07:08.950Z,11.07
2023-04-16T02:09:36.499Z,10.27
2023-04-16T02:12:03.847Z,11.80
2023-04-16T02:14:31.203Z,11.85
2023-04-16T02:16:57.957Z,11.98
2023-04-16T02:19:26.781Z,11.93
2023-04-16T02:21:54.024Z,10.90
2023-04-16T02:24:20.923Z,11.68
2023-04-16T02:26:47.982Z,10.13
2023-04-16T02:29:14.845Z,11.82
2023-04-16T02:31:41.436Z,12.95
2023-04-16T02:34:08.009Z,12.80
2023-04-16T02:36:39.025Z,12.15
2023-04-16T02:39:05.605Z,11.30
2023-04-16T02:41:32.257Z,12.52
2023-04-16T02:44:01.281Z,10.90
2023-04-16T02:46:28.002Z,11.82
2023-04-16T02:48:54.673Z,10.70
2023-04-16T02:51:21.361Z,11.32
2023-04-16T02:53:47.986Z,12.13
2023-04-16T02:56:14.616Z,12.18
2023-04-16T02:58:41.410Z,11.27
2023-04-16T03:01:08.172Z,11.38
2023-04-16T03:03:35.504Z,11.00
2023-04-16T03:06:02.102Z,11.77
2023-04-16T03:08:28.850Z,12.90
2023-04-16T03:10:55.560Z,11.45
2023-04-16T03:13:22.327Z,12.35
2023-04-16T03:15:49.945Z,12.38
2023-04-16T03:18:16.864Z,11.55
2023-04-16T03:20:43.616Z,12.45
2023-04-16T03:23:10.791Z,11.05
2023-04-16T03:25:40.476Z,11.77
2023-04-16T03:28:07.325Z,11.18
2023-04-16T03:30:35.383Z,11.65
2023-04-16T03:33:02.365Z,12.43
2023-04-16T03:35:29.009Z,13.82
2023-04-16T03:37:55.533Z,12.30
2023-04-16T03:40:22.330Z,12.02
2023-04-16T03:42:49.446Z,14.90
2023-04-16T03:45:16.489Z,13.02
2023-04-16T03:47:43.167Z,14.68
2023-04-16T03:50:11.483Z,15.30
2023-04-16T03:52:38.662Z,13.73
2023-04-16T03:55:06.374Z,14.98
2023-04-16T03:57:33.393Z,13.50
2023-04-16T03:59:59.916Z,14.20
2023-04-16T04:02:27.318Z,13.60
2023-04-16T04:04:54.065Z,13.13
2023-04-16T04:07:22.538Z,13.93
2023-04-16T04:09:49.143Z,14.57
2023-04-16T04:12:15.833Z,14.50
2023-04-16T04:14:42.273Z,13.10
2023-04-16T04:17:09.676Z,12.25
2023-04-16T04:19:36.877Z,12.25
2023-04-16T04:22:04.657Z,12.48
2023-04-16T04:24:31.493Z,12.43
2023-04-16T04:26:58.145Z,13.25
2023-04-16T04:29:24.687Z,13.68
2023-04-16T04:31:51.481Z,12.68
2023-04-16T04:34:18.849Z,12.73
2023-04-16T04:36:45.533Z,12.43
2023-04-16T04:39:12.054Z,13.48
2023-04-16T04:44:05.678Z,14.60
2023-04-16T04:46:32.175Z,13.80
2023-04-16T04:51:27.006Z,12.80
2023-04-16T04:53:53.820Z,14.45
2023-04-16T04:56:20.783Z,14.15
2023-04-16T05:01:13.991Z,13.10
2023-04-16T05:03:40.757Z,14.60
2023-04-16T05:06:07.955Z,15.73
2023-04-16T05:11:02.231Z,14.05
2023-04-16T05:15:55.347Z,14.48
2023-04-16T05:18:22.175Z,14.65
2023-04-16T05:20:48.736Z,16.83
2023-04-16T05:23:15.669Z,15.75
2023-04-16T05:28:09.981Z,14.40
2023-04-16T05:30:36.528Z,16.52
2023-04-16T05:33:04.060Z,15.30
2023-04-16T05:35:30.707Z,16.52
2023-04-16T05:37:57.355Z,16.23
2023-04-16T05:40:24.055Z,17.23
2023-04-16T05:42:51.286Z,15.82
2023-04-16T05:45:18.034Z,16.80
2023-04-16T05:50:11.353Z,15.25
2023-04-16T05:52:38.779Z,14.65
2023-04-16T05:55:06.220Z,15.68
2023-04-16T05:57:33.823Z,15.45
2023-04-16T06:00:01.815Z,15.05
2023-04-16T06:02:30.466Z,14.18
2023-04-16T06:04:58.049Z,15.20
2023-04-16T06:07:24.515Z,15.32
2023-04-16T06:12:18.056Z,13.45
2023-04-16T06:14:44.744Z,15.10
2023-04-16T06:19:38.942Z,13.15
2023-04-16T06:22:06.458Z,14.70
2023-04-16T06:24:34.009Z,15.25
2023-04-16T06:27:01.336Z,12.52
2023-04-16T06:29:36.963Z,13.88
2023-04-16T06:32:07.509Z,14.30
2023-04-16T06:34:34.320Z,14.45
2023-04-16T06:37:01.196Z,13.40
2023-04-16T06:39:28.822Z,14.55
2023-04-16T06:41:55.936Z,15.35
2023-04-16T06:44:22.550Z,15.00
2023-04-16T06:46:50.696Z,14.73
2023-04-16T06:49:17.346Z,14.93
2023-04-16T06:51:44.038Z,15.13
2023-04-16T06:54:10.677Z,16.13
2023-04-16T06:56:37.411Z,13.63
2023-04-16T06:59:04.668Z,15.55
2023-04-16T07:01:31.526Z,14.93
2023-04-16T07:03:59.865Z,17.40
2023-04-16T07:06:27.074Z,15.18
2023-04-16T07:08:54.090Z,14.90
2023-04-16T07:11:21.042Z,15.30
2023-04-16T07:13:47.749Z,15.80
2023-04-16T07:16:14.280Z,14.43
2023-04-16T07:21:07.605Z,12.60
2023-04-16T07:23:34.295Z,14.05
2023-04-16T07:26:01.449Z,12.50
2023-04-16T07:28:28.288Z,12.88
2023-04-16T07:30:55.522Z,13.57
2023-04-16T07:33:21.921Z,12.50
2023-04-16T07:35:48.657Z,13.43
2023-04-16T07:38:16.257Z,13.40
2023-04-16T07:40:42.810Z,11.80
2023-04-16T07:45:36.662Z,11.98
2023-04-16T07:48:03.393Z,10.75
2023-04-16T07:50:30.308Z,11.98
2023-04-16T07:52:58.089Z,13.10
2023-04-16T07:55:24.606Z,10.00
2023-04-16T07:57:52.201Z,11.13
2023-04-16T08:00:21.904Z,12.18
2023-04-16T08:02:49.728Z,10.25
2023-04-16T08:05:16.501Z,10.27
2023-04-16T08:07:43.570Z,11.43
2023-04-16T08:10:10.534Z,11.98
2023-04-16T08:12:37.182Z,12.40
2023-04-16T08:15:05.250Z,12.27
2023-04-16T08:17:34.367Z,12.93
2023-04-16T08:20:01.744Z,15.15
2023-04-16T08:22:31.369Z,14.10
2023-04-16T08:24:58.046Z,13.50
2023-04-16T08:27:24.533Z,15.13
2023-04-16T08:29:51.640Z,14.00
2023-04-16T08:32:18.252Z,14.38
2023-04-16T08:34:45.092Z,14.43
2023-04-16T08:37:12.909Z,13.48
2023-04-16T08:39:39.544Z,13.98
2023-04-16T08:42:12.976Z,12.30
2023-04-16T08:44:49.018Z,11.88
2023-04-16T08:47:21.092Z,10.98
2023-04-16T08:49:47.873Z,10.38
2023-04-16T08:52:22.032Z,11.35
2023-04-16T08:54:57.307Z,9.98
2023-04-16T08:57:30.423Z,10.05
2023-04-16T08:59:58.252Z,8.77
2023-04-16T09:02:26.397Z,9.98
2023-04-16T09:04:53.836Z,11.82
2023-04-16T09:07:21.873Z,9.15
2023-04-16T09:09:52.962Z,10.38
2023-04-16T09:12:25.867Z,11.25
2023-04-16T09:14:52.559Z,10.23
2023-04-16T09:17:19.358Z,10.75
2023-04-16T09:19:46.380Z,11.65
2023-04-16T09:22:13.229Z,11.15
2023-04-16T09:24:40.098Z,11.00
2023-04-16T09:27:09.267Z,12.93
2023-04-16T09:29:41.100Z,12.15
2023-04-16T09:32:10.375Z,12.20
2023-04-16T09:35:00.042Z,12.32
2023-04-16T09:37:31.443Z,11.73
2023-04-16T09:40:00.473Z,12.90
2023-04-16T09:42:29.351Z,12.93
2023-04-16T09:45:00.318Z,12.82
2023-04-16T09:47:45.707Z,13.80
2023-04-16T09:50:18.439Z,15.43
2023-04-16T09:52:51.086Z,13.43
2023-04-16T09:55:23.595Z,14.15
2023-04-16T09:57:58.839Z,14.23
2023-04-16T10:00:25.684Z,14.73
2023-04-16T10:03:04.621Z,13.93
2023-04-16T10:05:32.303Z,12.80
2023-04-16T10:08:02.606Z,13.77
2023-04-16T10:10:29.743Z,12.93
2023-04-16T10:12:56.503Z,12.88
2023-04-16T10:15:23.306Z,13.35
2023-04-16T10:20:18.402Z,13.18
2023-04-16T10:22:46.194Z,12.15
2023-04-16T10:25:13.439Z,14.57
2023-04-16T10:30:09.397Z,12.55
2023-04-16T10:32:38.357Z,14.05
2023-04-16T10:35:05.783Z,13.88
2023-04-16T10:37:33.119Z,14.23
2023-04-16T10:39:59.975Z,14.30
2023-04-16T10:44:54.134Z,14.00
2023-04-16T10:47:24.707Z,13.32
2023-04-16T10:49:51.851Z,13.65
2023-04-16T10:52:18.848Z,14.20
2023-04-16T10:57:18.243Z,11.77
2023-04-16T10:59:45.880Z,14.88
2023-04-16T11:02:18.066Z,13.02
2023-04-16T11:04:48.567Z,14.52
2023-04-16T11:07:32.739Z,15.13
2023-04-16T11:10:01.974Z,15.13
2023-04-16T11:12:56.081Z,15.25
2023-04-16T11:15:23.350Z,14.77
2023-04-16T11:17:52.507Z,15.50
2023-04-16T11:20:20.893Z,15.18
2023-04-16T11:22:49.618Z,16.70
2023-04-16T11:25:26.570Z,17.00
2023-04-16T11:27:54.158Z,16.70
2023-04-16T11:30:33.195Z,17.30
2023-04-16T11:33:06.008Z,17.05
2023-04-16T11:35:32.688Z,17.88
2023-04-16T11:38:00.080Z,16.65
2023-04-16T11:40:31.341Z,16.92
2023-04-16T11:43:13.124Z,15.90
2023-04-16T11:45:54.524Z,16.58
2023-04-16T11:48:21.952Z,16.42
2023-04-16T11:50:56.422Z,16.80
2023-04-16T11:53:23.757Z,16.60
2023-04-16T11:55:50.286Z,16.92
2023-04-16T11:58:17.060Z,17.38
2023-04-16T12:00:45.050Z,15.63
2023-04-16T12:03:12.219Z,17.77
2023-04-16T12:05:41.347Z,15.38
2023-04-16T12:08:12.751Z,15.20
2023-04-16T12:10:55.506Z,15.82
2023-04-16T12:13:22.065Z,15.50
2023-04-16T12:15:50.505Z,14.10
2023-04-16T12:18:20.096Z,14.00
2023-04-16T12:20:48.241Z,13.43
2023-04-16T12:23:27.758Z,14.40
2023-04-16T12:25:56.359Z,14.48
2023-04-16T12:28:34.909Z,14.05
2023-04-16T12:31:03.108Z,14.82
2023-04-16T12:33:30.519Z,14.73
2023-04-16T12:35:57.342Z,13.65
2023-04-16T12:38:25.499Z,13.43
2023-04-16T12:40:56.605Z,13.48
2023-04-16T12:43:24.099Z,13.07
2023-04-16T12:45:50.919Z,13.20
2023-04-16T12:48:17.612Z,15.07
2023-04-16T12:50:44.482Z,14.13
2023-04-16T12:53:12.122Z,14.70
2023-04-16T12:55:39.145Z,15.60
2023-04-16T12:58:05.638Z,16.27
2023-04-16T13:00:32.761Z,14.48
2023-04-16T13:03:00.853Z,14.80
2023-04-16T13:05:27.627Z,14.70
2023-04-16T13:07:55.492Z,15.45
2023-04-16T13:10:23.415Z,15.57
2023-04-16T13:12:49.934Z,14.98
2023-04-16T13:15:18.465Z,14.63
2023-04-16T13:17:45.304Z,15.23
2023-04-16T13:20:12.914Z,14.13
2023-04-16T13:22:40.759Z,14.57
2023-04-16T13:25:08.242Z,14.40
2023-04-16T13:27:35.160Z,15.55
2023-04-16T13:30:04.584Z,15.52
2023-04-16T13:32:31.948Z,15.13
2023-04-16T13:34:58.960Z,14.55
2023-04-16T13:39:54.780Z,12.43
2023-04-16T13:42:22.013Z,12.00
2023-04-16T13:44:49.302Z,14.48
2023-04-16T13:47:16.137Z,13.77
2023-04-16T13:49:43.396Z,13.82
2023-04-16T13:52:10.081Z,14.40
2023-04-16T13:54:36.681Z,14.50
2023-04-16T13:57:03.241Z,13.43
2023-04-16T13:59:29.675Z,13.88
2023-04-16T14:01:57.728Z,13.27
2023-04-16T14:06:51.261Z,12.07
2023-04-16T14:09:17.866Z,12.35
2023-04-16T14:11:45.391Z,13.38
2023-04-16T14:14:12.288Z,13.93
2023-04-16T14:16:38.878Z,13.15
2023-04-16T14:21:31.986Z,11.40
2023-04-16T14:23:58.523Z,11.88
2023-04-16T14:26:25.316Z,11.98
2023-04-16T14:31:19.967Z,12.75
2023-04-16T14:33:47.119Z,11.48
2023-04-16T14:36:14.923Z,10.57
2023-04-16T14:38:43.169Z,10.05
2023-04-16T14:41:12.536Z,10.30
2023-04-16T14:43:41.186Z,10.68
2023-04-16T14:46:08.512Z,10.70
2023-04-16T14:48:35.986Z,10.02
2023-04-16T14:51:02.937Z,10.30
2023-04-16T14:53:31.117Z,11.25
2023-04-16T14:55:58.921Z,11.68
2023-04-16T14:58:26.282Z,11.70
2023-04-16T15:00:53.178Z,12.02
2023-04-16T15:03:21.193Z,11.80
2023-04-16T15:05:54.747Z,11.02
2023-04-16T15:08:22.861Z,11.43
2023-04-16T15:10:50.514Z,11.65
2023-04-16T15:13:17.720Z,10.68
2023-04-16T15:18:11.043Z,10.18
2023-04-16T15:23:04.318Z,9.55
2023-04-16T15:25:30.979Z,9.50
2023-04-16T15:30:24.505Z,9.30
2023-04-16T15:32:52.289Z,9.85
2023-04-16T15:35:18.964Z,10.35
2023-04-16T15:40:13.268Z,9.75
2023-04-16T15:42:40.274Z,10.70
2023-04-16T15:45:08.181Z,11.35
2023-04-16T15:47:36.240Z,10.52
2023-04-16T15:50:03.322Z,10.82
2023-04-16T15:52:31.230Z,10.50
2023-04-16T15:54:57.905Z,12.02
2023-04-16T15:57:24.578Z,10.13
2023-04-16T16:00:05.954Z,10.27
2023-04-16T16:02:34.100Z,10.52
2023-04-16T16:05:01.120Z,14.10
2023-04-16T16:09:56.205Z,10.55
2023-04-16T16:12:23.036Z,10.57
2023-04-16T16:14:49.825Z,10.43
2023-04-16T16:17:20.041Z,10.60
2023-04-16T16:19:47.212Z,11.05
2023-04-16T16:22:13.956Z,10.73
2023-04-16T16:24:41.359Z,11.05
2023-04-16T16:27:07.989Z,12.13
2023-04-16T16:32:02.498Z,10.63
2023-04-16T16:34:29.596Z,11.32
2023-04-16T16:36:56.054Z,10.68
2023-04-16T16:39:25.293Z,10.60
2023-04-16T16:41:53.998Z,12.10
2023-04-16T16:44:21.205Z,10.43
2023-04-16T16:46:48.079Z,11.35
2023-04-16T16:49:15.896Z,12.27
2023-04-16T16:51:44.861Z,10.48
2023-04-16T16:54:11.488Z,12.32
2023-04-16T16:56:37.941Z,11.35
2023-04-16T17:01:32.003Z,10.80
2023-04-16T17:03:59.165Z,10.50
2023-04-16T17:08:53.701Z,10.73
2023-04-16T17:11:22.410Z,10.82
2023-04-16T17:13:48.881Z,9.38
2023-04-16T17:16:17.511Z,10.27
2023-04-16T17:18:44.624Z,10.32
2023-04-16T17:21:11.197Z,9.90
2023-04-16T17:23:39.947Z,10.00
2023-04-16T17:26:07.540Z,9.60
2023-04-16T17:28:34.119Z,9.90
2023-04-16T17:31:01.486Z,9.88
2023-04-16T17:33:28.226Z,10.45
2023-04-16T17:35:54.786Z,9.57
2023-04-16T17:38:21.287Z,9.70
2023-04-16T17:40:47.934Z,9.82
2023-04-16T17:43:14.431Z,10.30
2023-04-16T17:48:09.518Z,10.65
2023-04-16T17:50:38.198Z,10.52
2023-04-16T17:53:06.351Z,11.23
2023-04-16T17:55:34.899Z,11.75
2023-04-16T17:58:04.156Z,11.60
2023-04-16T18:00:31.132Z,12.20
2023-04-16T18:02:59.635Z,11.55
2023-04-16T18:05:26.449Z,11.02
2023-04-16T18:07:53.444Z,11.55
2023-04-16T18:10:19.934Z,11.73
2023-04-16T18:15:13.159Z,11.50
2023-04-16T18:17:40.337Z,11.68
2023-04-16T18:20:08.892Z,11.45
2023-04-16T18:22:36.244Z,11.07
2023-04-16T18:25:03.066Z,11.80
2023-04-16T18:27:32.090Z,11.82
2023-04-16T18:29:58.551Z,12.10
2023-04-16T18:32:26.010Z,12.60
2023-04-16T18:34:52.877Z,11.75
2023-04-16T18:37:19.521Z,12.57
2023-04-16T18:39:47.348Z,12.70
2023-04-16T18:42:18.619Z,14.80
2023-04-16T18:44:51.874Z,13.50
2023-04-16T18:49:45.138Z,11.68
2023-04-16T18:52:12.343Z,13.60
2023-04-16T18:57:05.462Z,13.57
2023-04-16T18:59:32.032Z,14.07
2023-04-16T19:01:58.732Z,14.25
2023-04-16T19:04:25.290Z,13.30
2023-04-16T19:06:52.376Z,13.23
2023-04-16T19:09:19.846Z,13.35
2023-04-16T19:11:47.373Z,13.45
2023-04-16T19:14:14.979Z,12.07
2023-04-16T19:16:42.264Z,12.95
2023-04-16T19:19:09.163Z,12.18
2023-04-16T19:24:03.867Z,11.15
2023-04-16T19:28:57.268Z,11.82
2023-04-16T19:31:26.008Z,13.38
2023-04-16T19:33:52.523Z,16.33
2023-04-16T19:36:19.005Z,13.35
2023-04-16T19:38:45.879Z,13.07
2023-04-16T19:41:12.419Z,15.05
2023-04-16T19:43:39.062Z,12.52
2023-04-16T19:46:05.908Z,11.90
2023-04-16T19:48:33.524Z,12.13
2023-04-16T19:51:05.947Z,12.48
2023-04-16T19:53:34.281Z,11.73
2023-04-16T19:56:01.652Z,13.38
2023-04-16T19:58:28.297Z,14.35
2023-04-16T20:00:55.562Z,13.98
2023-04-16T20:03:22.304Z,14.55
2023-04-16T20:05:49.852Z,12.68
2023-04-16T20:08:16.502Z,13.32
2023-04-16T20:10:44.306Z,14.00
2023-04-16T20:13:12.042Z,14.32
2023-04-16T20:15:38.619Z,15.48
2023-04-16T20:18:06.796Z,15.13
2023-04-16T20:20:37.726Z,15.93
2023-04-16T20:23:04.408Z,14.57
2023-04-16T20:25:30.912Z,16.27
2023-04-16T20:27:57.865Z,15.32
2023-04-16T20:30:29.032Z,16.65
2023-04-16T20:32:56.415Z,16.17
2023-04-16T20:35:22.978Z,14.77
2023-04-16T20:40:17.043Z,14.40
2023-04-16T20:42:46.260Z,15.02
2023-04-16T20:45:13.050Z,15.50
2023-04-16T20:50:07.636Z,14.88
2023-04-16T20:52:36.358Z,15.30
2023-04-16T20:55:03.468Z,15.70
2023-04-16T20:57:31.855Z,15.10
2023-04-16T20:59:58.601Z,14.48
2023-04-16T21:02:25.500Z,15.90
2023-04-16T21:04:52.415Z,14.13
2023-04-16T21:07:18.925Z,15.40
2023-04-16T21:09:45.392Z,14.65
2023-04-16T21:12:12.100Z,15.07
2023-04-16T21:14:38.626Z,14.77
2023-04-16T21:17:05.769Z,14.48
2023-04-16T21:19:32.238Z,14.70
2023-04-16T21:21:58.729Z,13.90
2023-04-16T21:24:25.384Z,15.40
2023-04-16T21:26:52.004Z,15.30
2023-04-16T21:29:18.493Z,14.77
2023-04-16T21:31:45.189Z,13.63
2023-04-16T21:34:12.554Z,15.40
2023-04-16T21:36:39.495Z,16.50
2023-04-16T21:39:07.480Z,15.55
2023-04-16T21:41:34.754Z,14.13
2023-04-16T21:44:01.239Z,15.23
2023-04-16T21:46:28.595Z,15.70
2023-04-16T21:48:55.168Z,15.18
2023-04-16T21:51:28.813Z,15.35
2023-04-16T21:53:58.538Z,14.32
2023-04-16T21:56:25.751Z,14.40
2023-04-16T21:58:52.364Z,15.68
2023-04-16T22:03:50.327Z,15.73
2023-04-16T22:06:17.784Z,16.63
2023-04-16T22:08:44.304Z,15.02
2023-04-16T22:11:11.759Z,17.70
2023-04-16T22:13:41.844Z,15.95
2023-04-16T22:16:11.366Z,15.43
2023-04-16T22:18:38.719Z,15.98
2023-04-16T22:21:05.506Z,14.93
2023-04-16T22:23:32.034Z,15.50
2023-04-16T22:25:58.579Z,15.57
2023-04-16T22:28:25.843Z,18.48
2023-04-16T22:30:52.564Z,20.10
2023-04-16T22:35:46.516Z,17.55
2023-04-16T22:38:13.361Z,19.40
2023-04-16T22:40:39.790Z,20.45
2023-04-16T22:43:06.727Z,22.02
2023-04-16T22:45:34.477Z,22.92
2023-04-16T22:48:00.978Z,23.45
2023-04-16T22:50:28.420Z,20.05
2023-04-16T22:52:55.464Z,18.30
2023-04-16T22:55:21.938Z,14.02
2023-04-16T22:57:48.508Z,14.90
2023-04-16T23:00:16.542Z,15.13
2023-04-16T23:02:43.789Z,15.60
2023-04-16T23:05:10.882Z,16.52
2023-04-16T23:07:37.671Z,16.13
2023-04-16T23:12:32.058Z,16.13
2023-04-16T23:15:00.407Z,18.38
2023-04-16T23:17:27.948Z,17.15
2023-04-16T23:19:54.749Z,16.27
2023-04-16T23:22:21.504Z,17.05
2023-04-16T23:24:47.954Z,17.73
2023-04-16T23:27:14.425Z,17.67
2023-04-16T23:29:40.983Z,18.27
2023-04-16T23:32:07.755Z,18.42
2023-04-16T23:34:34.166Z,17.80
2023-04-16T23:37:00.717Z,17.15
2023-04-16T23:39:27.394Z,17.85
2023-04-16T23:41:54.062Z,20.55
2023-04-16T23:44:20.484Z,20.13
2023-04-16T23:46:47.005Z,18.23
2023-04-16T23:49:13.974Z,20.27
2023-04-16T23:51:40.850Z,19.17
2023-04-16T23:54:08.353Z,17.70
2023-04-16T23:56:35.460Z,18.90
2023-04-16T23:59:02.029Z,17.95
